sensor_id;sensor_type;location;lat;lon;timestamp;temperature;humidity
40868;DHT22;26586;50.708;22.412;2022-09-16T00:01:44;20.90;63.70
40868;DHT22;26586;50.708;22.412;2022-09-16T00:04:10;20.90;63.70
40868;DHT22;26586;50.708;22.412;2022-09-16T00:06:36;20.90;63.70
40868;DHT22;26586;50.708;22.412;2022-09-16T00:09:02;20.90;63.70
40868;DHT22;26586;50.708;22.412;2022-09-16T00:11:31;20.90;63.70
40868;DHT22;26586;50.708;22.412;2022-09-16T00:13:59;20.90;63.70
40868;DHT22;26586;50.708;22.412;2022-09-16T00:16:27;20.90;63.70
40868;DHT22;26586;50.708;22.412;2022-09-16T00:18:55;20.90;63.70
40868;DHT22;26586;50.708;22.412;2022-09-16T00:21:23;20.90;63.70
40868;DHT22;26586;50.708;22.412;2022-09-16T00:23:50;20.80;63.70
40868;DHT22;26586;50.708;22.412;2022-09-16T00:26:16;20.80;63.70
40868;DHT22;26586;50.708;22.412;2022-09-16T00:28:43;20.80;63.70
40868;DHT22;26586;50.708;22.412;2022-09-16T00:31:09;20.80;63.70
40868;DHT22;26586;50.708;22.412;2022-09-16T00:33:35;20.80;63.70
40868;DHT22;26586;50.708;22.412;2022-09-16T00:36:10;20.80;63.70
40868;DHT22;26586;50.708;22.412;2022-09-16T00:38:36;20.80;63.70
40868;DHT22;26586;50.708;22.412;2022-09-16T00:41:03;20.80;63.70
40868;DHT22;26586;50.708;22.412;2022-09-16T00:46:22;20.80;63.70
40868;DHT22;26586;50.708;22.412;2022-09-16T00:48:50;20.80;63.70
40868;DHT22;26586;50.708;22.412;2022-09-16T00:51:17;20.80;63.70
40868;DHT22;26586;50.708;22.412;2022-09-16T00:53:49;20.70;63.80
40868;DHT22;26586;50.708;22.412;2022-09-16T00:56:18;20.70;63.80
40868;DHT22;26586;50.708;22.412;2022-09-16T00:59:08;20.70;63.90
40868;DHT22;26586;50.708;22.412;2022-09-16T01:01:37;20.70;63.90
40868;DHT22;26586;50.708;22.412;2022-09-16T01:04:16;20.70;64.00
40868;DHT22;26586;50.708;22.412;2022-09-16T01:06:43;20.70;64.20
40868;DHT22;26586;50.708;22.412;2022-09-16T01:09:11;20.70;64.10
40868;DHT22;26586;50.708;22.412;2022-09-16T01:11:37;20.70;64.20
40868;DHT22;26586;50.708;22.412;2022-09-16T01:14:04;20.70;64.40
40868;DHT22;26586;50.708;22.412;2022-09-16T01:20:00;20.70;64.20
40868;DHT22;26586;50.708;22.412;2022-09-16T01:25:30;20.70;64.20
40868;DHT22;26586;50.708;22.412;2022-09-16T01:31:19;20.60;64.20
40868;DHT22;26586;50.708;22.412;2022-09-16T01:36:42;20.60;64.20
40868;DHT22;26586;50.708;22.412;2022-09-16T01:39:56;20.60;64.20
40868;DHT22;26586;50.708;22.412;2022-09-16T01:44:59;20.60;64.20
40868;DHT22;26586;50.708;22.412;2022-09-16T01:55:07;20.60;64.30
40868;DHT22;26586;50.708;22.412;2022-09-16T02:00:44;20.50;64.30
40868;DHT22;26586;50.708;22.412;2022-09-16T02:03:15;20.50;64.20
40868;DHT22;26586;50.708;22.412;2022-09-16T02:05:57;20.50;64.40
40868;DHT22;26586;50.708;22.412;2022-09-16T02:08:29;20.50;64.50
40868;DHT22;26586;50.708;22.412;2022-09-16T02:10:58;20.50;64.40
40868;DHT22;26586;50.708;22.412;2022-09-16T02:13:44;20.50;64.30
40868;DHT22;26586;50.708;22.412;2022-09-16T02:16:17;20.50;64.40
40868;DHT22;26586;50.708;22.412;2022-09-16T02:18:47;20.50;64.40
40868;DHT22;26586;50.708;22.412;2022-09-16T02:21:15;20.50;64.50
40868;DHT22;26586;50.708;22.412;2022-09-16T02:23:46;20.50;64.40
40868;DHT22;26586;50.708;22.412;2022-09-16T02:26:18;20.50;64.50
40868;DHT22;26586;50.708;22.412;2022-09-16T02:28:47;20.50;64.50
40868;DHT22;26586;50.708;22.412;2022-09-16T02:31:16;20.50;64.60
40868;DHT22;26586;50.708;22.412;2022-09-16T02:34:13;20.50;64.60
40868;DHT22;26586;50.708;22.412;2022-09-16T02:36:44;20.40;64.60
40868;DHT22;26586;50.708;22.412;2022-09-16T02:39:15;20.40;64.60
40868;DHT22;26586;50.708;22.412;2022-09-16T02:41:44;20.40;64.60
40868;DHT22;26586;50.708;22.412;2022-09-16T02:44:11;20.40;64.60
40868;DHT22;26586;50.708;22.412;2022-09-16T02:52:26;20.40;64.60
40868;DHT22;26586;50.708;22.412;2022-09-16T02:57:36;20.40;64.60
40868;DHT22;26586;50.708;22.412;2022-09-16T03:00:05;20.40;64.70
40868;DHT22;26586;50.708;22.412;2022-09-16T03:02:33;20.40;64.80
40868;DHT22;26586;50.708;22.412;2022-09-16T03:05:00;20.40;64.80
40868;DHT22;26586;50.708;22.412;2022-09-16T03:07:26;20.40;64.90
40868;DHT22;26586;50.708;22.412;2022-09-16T03:09:52;20.40;64.90
40868;DHT22;26586;50.708;22.412;2022-09-16T03:12:31;20.40;64.90
40868;DHT22;26586;50.708;22.412;2022-09-16T03:20:46;20.40;64.90
40868;DHT22;26586;50.708;22.412;2022-09-16T03:29:22;20.30;64.80
40868;DHT22;26586;50.708;22.412;2022-09-16T03:32:17;20.30;64.80
40868;DHT22;26586;50.708;22.412;2022-09-16T03:34:55;20.30;65.00
40868;DHT22;26586;50.708;22.412;2022-09-16T03:37:26;20.30;64.70
40868;DHT22;26586;50.708;22.412;2022-09-16T03:39:58;20.30;65.50
40868;DHT22;26586;50.708;22.412;2022-09-16T03:42:25;20.30;65.50
40868;DHT22;26586;50.708;22.412;2022-09-16T03:44:51;20.30;64.70
40868;DHT22;26586;50.708;22.412;2022-09-16T03:47:18;20.30;64.70
40868;DHT22;26586;50.708;22.412;2022-09-16T03:49:44;20.30;64.60
40868;DHT22;26586;50.708;22.412;2022-09-16T03:52:11;20.30;64.60
40868;DHT22;26586;50.708;22.412;2022-09-16T03:54:37;20.30;64.60
40868;DHT22;26586;50.708;22.412;2022-09-16T03:57:04;20.20;64.50
40868;DHT22;26586;50.708;22.412;2022-09-16T03:59:30;20.20;64.50
40868;DHT22;26586;50.708;22.412;2022-09-16T04:01:56;20.20;64.70
40868;DHT22;26586;50.708;22.412;2022-09-16T04:04:23;20.20;64.50
40868;DHT22;26586;50.708;22.412;2022-09-16T04:06:49;20.20;64.50
40868;DHT22;26586;50.708;22.412;2022-09-16T04:09:15;20.20;64.50
40868;DHT22;26586;50.708;22.412;2022-09-16T04:11:42;20.20;64.50
40868;DHT22;26586;50.708;22.412;2022-09-16T04:14:08;20.20;65.70
40868;DHT22;26586;50.708;22.412;2022-09-16T04:16:34;20.10;64.60
40868;DHT22;26586;50.708;22.412;2022-09-16T04:19:00;20.20;64.50
40868;DHT22;26586;50.708;22.412;2022-09-16T04:21:26;20.20;64.50
40868;DHT22;26586;50.708;22.412;2022-09-16T04:23:54;20.10;64.40
40868;DHT22;26586;50.708;22.412;2022-09-16T04:26:20;20.10;64.40
40868;DHT22;26586;50.708;22.412;2022-09-16T04:28:46;20.10;64.40
40868;DHT22;26586;50.708;22.412;2022-09-16T04:31:14;20.10;64.40
40868;DHT22;26586;50.708;22.412;2022-09-16T04:33:41;20.10;64.40
40868;DHT22;26586;50.708;22.412;2022-09-16T04:36:13;20.10;64.30
40868;DHT22;26586;50.708;22.412;2022-09-16T04:38:45;20.10;64.40
40868;DHT22;26586;50.708;22.412;2022-09-16T04:41:31;20.10;64.30
40868;DHT22;26586;50.708;22.412;2022-09-16T04:43:59;20.10;64.20
40868;DHT22;26586;50.708;22.412;2022-09-16T04:46:28;20.10;64.30
40868;DHT22;26586;50.708;22.412;2022-09-16T04:48:56;20.10;64.40
40868;DHT22;26586;50.708;22.412;2022-09-16T04:51:23;20.10;64.20
40868;DHT22;26586;50.708;22.412;2022-09-16T04:53:50;20.10;64.10
40868;DHT22;26586;50.708;22.412;2022-09-16T04:56:18;20.10;64.20
40868;DHT22;26586;50.708;22.412;2022-09-16T04:58:47;20.10;64.20
40868;DHT22;26586;50.708;22.412;2022-09-16T05:01:19;20.10;64.20
40868;DHT22;26586;50.708;22.412;2022-09-16T05:03:47;20.10;64.20
40868;DHT22;26586;50.708;22.412;2022-09-16T05:06:17;20.00;64.10
40868;DHT22;26586;50.708;22.412;2022-09-16T05:08:43;20.00;64.40
40868;DHT22;26586;50.708;22.412;2022-09-16T05:11:12;20.00;64.20
40868;DHT22;26586;50.708;22.412;2022-09-16T05:13:39;20.00;64.20
40868;DHT22;26586;50.708;22.412;2022-09-16T05:16:10;20.00;64.10
40868;DHT22;26586;50.708;22.412;2022-09-16T05:18:37;20.00;64.00
40868;DHT22;26586;50.708;22.412;2022-09-16T05:21:06;20.00;64.00
40868;DHT22;26586;50.708;22.412;2022-09-16T05:23:33;20.00;64.10
40868;DHT22;26586;50.708;22.412;2022-09-16T05:26:08;20.00;63.90
40868;DHT22;26586;50.708;22.412;2022-09-16T05:28:35;20.00;64.00
40868;DHT22;26586;50.708;22.412;2022-09-16T05:31:13;20.00;63.90
40868;DHT22;26586;50.708;22.412;2022-09-16T05:33:41;20.00;63.90
40868;DHT22;26586;50.708;22.412;2022-09-16T05:36:13;20.00;63.90
40868;DHT22;26586;50.708;22.412;2022-09-16T05:38:39;20.00;63.90
40868;DHT22;26586;50.708;22.412;2022-09-16T05:41:06;19.90;64.00
40868;DHT22;26586;50.708;22.412;2022-09-16T05:43:33;20.00;64.00
40868;DHT22;26586;50.708;22.412;2022-09-16T05:46:00;20.00;64.00
40868;DHT22;26586;50.708;22.412;2022-09-16T05:48:26;20.00;63.90
40868;DHT22;26586;50.708;22.412;2022-09-16T05:51:04;19.90;63.90
40868;DHT22;26586;50.708;22.412;2022-09-16T05:53:32;20.00;63.80
40868;DHT22;26586;50.708;22.412;2022-09-16T05:56:04;20.00;63.80
40868;DHT22;26586;50.708;22.412;2022-09-16T05:58:33;20.00;63.90
40868;DHT22;26586;50.708;22.412;2022-09-16T06:01:10;20.00;63.80
40868;DHT22;26586;50.708;22.412;2022-09-16T06:03:38;20.00;63.70
40868;DHT22;26586;50.708;22.412;2022-09-16T06:06:06;19.90;63.80
40868;DHT22;26586;50.708;22.412;2022-09-16T06:08:34;19.90;63.80
40868;DHT22;26586;50.708;22.412;2022-09-16T06:11:03;20.00;63.60
40868;DHT22;26586;50.708;22.412;2022-09-16T06:13:30;19.90;63.30
40868;DHT22;26586;50.708;22.412;2022-09-16T06:15:56;19.90;63.20
40868;DHT22;26586;50.708;22.412;2022-09-16T06:18:24;19.90;63.20
40868;DHT22;26586;50.708;22.412;2022-09-16T06:20:51;20.00;63.30
40868;DHT22;26586;50.708;22.412;2022-09-16T06:23:18;19.90;63.20
40868;DHT22;26586;50.708;22.412;2022-09-16T06:25:45;19.90;63.10
40868;DHT22;26586;50.708;22.412;2022-09-16T06:28:11;20.00;63.20
40868;DHT22;26586;50.708;22.412;2022-09-16T06:30:38;19.90;63.10
40868;DHT22;26586;50.708;22.412;2022-09-16T06:33:04;20.00;63.20
40868;DHT22;26586;50.708;22.412;2022-09-16T06:35:33;20.00;63.20
40868;DHT22;26586;50.708;22.412;2022-09-16T06:38:00;20.00;63.20
40868;DHT22;26586;50.708;22.412;2022-09-16T06:40:26;20.00;63.30
40868;DHT22;26586;50.708;22.412;2022-09-16T06:42:53;20.00;63.30
40868;DHT22;26586;50.708;22.412;2022-09-16T06:45:20;19.90;63.30
40868;DHT22;26586;50.708;22.412;2022-09-16T06:47:47;20.00;63.60
40868;DHT22;26586;50.708;22.412;2022-09-16T06:50:13;20.00;63.50
40868;DHT22;26586;50.708;22.412;2022-09-16T06:52:40;20.00;63.40
40868;DHT22;26586;50.708;22.412;2022-09-16T06:55:06;20.00;63.40
40868;DHT22;26586;50.708;22.412;2022-09-16T06:57:32;20.10;63.40
40868;DHT22;26586;50.708;22.412;2022-09-16T06:59:59;20.10;63.40
40868;DHT22;26586;50.708;22.412;2022-09-16T07:02:25;20.10;63.10
40868;DHT22;26586;50.708;22.412;2022-09-16T07:04:51;20.10;62.90
40868;DHT22;26586;50.708;22.412;2022-09-16T07:07:17;20.10;62.70
40868;DHT22;26586;50.708;22.412;2022-09-16T07:09:44;20.10;63.30
40868;DHT22;26586;50.708;22.412;2022-09-16T07:12:11;20.10;62.60
40868;DHT22;26586;50.708;22.412;2022-09-16T07:14:37;20.10;62.50
40868;DHT22;26586;50.708;22.412;2022-09-16T07:17:03;20.10;62.40
40868;DHT22;26586;50.708;22.412;2022-09-16T07:19:29;20.10;63.50
40868;DHT22;26586;50.708;22.412;2022-09-16T07:21:56;20.10;62.00
40868;DHT22;26586;50.708;22.412;2022-09-16T07:24:22;20.20;61.60
40868;DHT22;26586;50.708;22.412;2022-09-16T07:26:48;20.20;62.20
40868;DHT22;26586;50.708;22.412;2022-09-16T07:29:16;20.20;61.40
40868;DHT22;26586;50.708;22.412;2022-09-16T07:31:43;20.20;61.30
40868;DHT22;26586;50.708;22.412;2022-09-16T07:34:10;20.20;61.30
40868;DHT22;26586;50.708;22.412;2022-09-16T07:36:41;20.20;61.30
40868;DHT22;26586;50.708;22.412;2022-09-16T07:39:08;20.20;61.20
40868;DHT22;26586;50.708;22.412;2022-09-16T07:41:37;20.20;61.00
40868;DHT22;26586;50.708;22.412;2022-09-16T07:44:04;20.20;61.10
40868;DHT22;26586;50.708;22.412;2022-09-16T07:46:33;20.20;61.20
40868;DHT22;26586;50.708;22.412;2022-09-16T07:49:02;20.30;61.80
40868;DHT22;26586;50.708;22.412;2022-09-16T07:51:29;20.30;61.20
40868;DHT22;26586;50.708;22.412;2022-09-16T07:54:01;20.30;61.30
40868;DHT22;26586;50.708;22.412;2022-09-16T07:56:31;20.30;61.60
40868;DHT22;26586;50.708;22.412;2022-09-16T07:59:00;20.30;61.30
40868;DHT22;26586;50.708;22.412;2022-09-16T08:01:27;20.30;61.20
40868;DHT22;26586;50.708;22.412;2022-09-16T08:03:54;20.30;61.30
40868;DHT22;26586;50.708;22.412;2022-09-16T08:06:22;20.30;61.10
40868;DHT22;26586;50.708;22.412;2022-09-16T08:08:53;20.40;61.50
40868;DHT22;26586;50.708;22.412;2022-09-16T08:11:21;20.50;61.10
40868;DHT22;26586;50.708;22.412;2022-09-16T08:13:48;20.50;61.20
40868;DHT22;26586;50.708;22.412;2022-09-16T08:16:16;20.50;60.80
40868;DHT22;26586;50.708;22.412;2022-09-16T08:18:44;20.50;60.90
40868;DHT22;26586;50.708;22.412;2022-09-16T08:21:14;20.50;60.30
40868;DHT22;26586;50.708;22.412;2022-09-16T08:23:41;20.50;60.30
40868;DHT22;26586;50.708;22.412;2022-09-16T08:26:09;20.60;60.10
40868;DHT22;26586;50.708;22.412;2022-09-16T08:28:37;20.50;60.00
40868;DHT22;26586;50.708;22.412;2022-09-16T08:31:04;20.60;59.80
40868;DHT22;26586;50.708;22.412;2022-09-16T08:33:31;20.60;59.50
40868;DHT22;26586;50.708;22.412;2022-09-16T08:38:35;20.60;59.10
40868;DHT22;26586;50.708;22.412;2022-09-16T08:43:52;20.70;59.40
40868;DHT22;26586;50.708;22.412;2022-09-16T08:49:31;20.80;59.00
40868;DHT22;26586;50.708;22.412;2022-09-16T08:52:08;20.90;58.90
40868;DHT22;26586;50.708;22.412;2022-09-16T08:54:48;20.90;58.70
40868;DHT22;26586;50.708;22.412;2022-09-16T08:57:22;21.00;58.60
40868;DHT22;26586;50.708;22.412;2022-09-16T08:59:56;21.00;59.00
40868;DHT22;26586;50.708;22.412;2022-09-16T09:05:00;21.10;57.50
40868;DHT22;26586;50.708;22.412;2022-09-16T09:08:02;21.10;57.40
40868;DHT22;26586;50.708;22.412;2022-09-16T09:10:53;21.20;57.50
40868;DHT22;26586;50.708;22.412;2022-09-16T09:18:46;21.30;56.20
40868;DHT22;26586;50.708;22.412;2022-09-16T09:27:15;21.60;55.40
40868;DHT22;26586;50.708;22.412;2022-09-16T09:35:34;21.70;54.90
40868;DHT22;26586;50.708;22.412;2022-09-16T09:38:32;21.70;54.60
40868;DHT22;26586;50.708;22.412;2022-09-16T09:43:56;21.90;54.40
40868;DHT22;26586;50.708;22.412;2022-09-16T09:46:32;21.90;53.90
40868;DHT22;26586;50.708;22.412;2022-09-16T09:49:21;21.90;55.70
40868;DHT22;26586;50.708;22.412;2022-09-16T09:52:06;22.00;54.60
40868;DHT22;26586;50.708;22.412;2022-09-16T09:54:38;22.00;54.90
40868;DHT22;26586;50.708;22.412;2022-09-16T09:57:21;22.10;54.50
40868;DHT22;26586;50.708;22.412;2022-09-16T10:00:10;22.10;53.90
40868;DHT22;26586;50.708;22.412;2022-09-16T10:02:40;22.10;53.90
40868;DHT22;26586;50.708;22.412;2022-09-16T10:07:45;22.10;53.00
40868;DHT22;26586;50.708;22.412;2022-09-16T10:10:19;22.20;53.30
40868;DHT22;26586;50.708;22.412;2022-09-16T10:12:47;22.20;52.30
40868;DHT22;26586;50.708;22.412;2022-09-16T10:15:27;22.20;52.20
40868;DHT22;26586;50.708;22.412;2022-09-16T10:17:55;22.20;51.50
40868;DHT22;26586;50.708;22.412;2022-09-16T10:23:13;22.30;51.70
40868;DHT22;26586;50.708;22.412;2022-09-16T10:25:41;22.30;50.90
40868;DHT22;26586;50.708;22.412;2022-09-16T10:28:23;22.30;51.10
40868;DHT22;26586;50.708;22.412;2022-09-16T10:30:52;22.30;50.80
40868;DHT22;26586;50.708;22.412;2022-09-16T10:33:41;22.30;50.40
40868;DHT22;26586;50.708;22.412;2022-09-16T10:36:19;22.40;50.60
40868;DHT22;26586;50.708;22.412;2022-09-16T10:38:57;22.40;50.40
40868;DHT22;26586;50.708;22.412;2022-09-16T10:41:28;22.40;50.10
40868;DHT22;26586;50.708;22.412;2022-09-16T10:44:01;22.40;50.00
40868;DHT22;26586;50.708;22.412;2022-09-16T10:46:29;22.40;50.20
40868;DHT22;26586;50.708;22.412;2022-09-16T10:48:59;22.40;50.50
40868;DHT22;26586;50.708;22.412;2022-09-16T10:51:28;22.40;50.50
40868;DHT22;26586;50.708;22.412;2022-09-16T10:53:58;22.40;50.50
40868;DHT22;26586;50.708;22.412;2022-09-16T10:56:28;22.40;50.50
40868;DHT22;26586;50.708;22.412;2022-09-16T10:59:08;22.40;50.20
40868;DHT22;26586;50.708;22.412;2022-09-16T11:04:54;22.40;50.30
40868;DHT22;26586;50.708;22.412;2022-09-16T11:08:08;22.40;50.20
40868;DHT22;26586;50.708;22.412;2022-09-16T11:18:48;22.40;50.00
40868;DHT22;26586;50.708;22.412;2022-09-16T11:27:06;22.40;49.60
40868;DHT22;26586;50.708;22.412;2022-09-16T11:29:48;22.40;49.50
40868;DHT22;26586;50.708;22.412;2022-09-16T11:38:22;22.40;50.00
40868;DHT22;26586;50.708;22.412;2022-09-16T11:41:12;22.40;49.60
40868;DHT22;26586;50.708;22.412;2022-09-16T11:44:07;22.40;49.20
40868;DHT22;26586;50.708;22.412;2022-09-16T11:54:32;22.40;49.00
40868;DHT22;26586;50.708;22.412;2022-09-16T11:57:07;22.40;49.20
40868;DHT22;26586;50.708;22.412;2022-09-16T12:02:39;22.40;49.40
40868;DHT22;26586;50.708;22.412;2022-09-16T12:08:19;22.40;49.00
40868;DHT22;26586;50.708;22.412;2022-09-16T12:13:45;22.40;50.40
40868;DHT22;26586;50.708;22.412;2022-09-16T12:16:36;22.40;49.10
40868;DHT22;26586;50.708;22.412;2022-09-16T12:22:00;22.40;49.20
40868;DHT22;26586;50.708;22.412;2022-09-16T12:25:31;22.40;49.40
40868;DHT22;26586;50.708;22.412;2022-09-16T12:30:37;22.40;48.90
40868;DHT22;26586;50.708;22.412;2022-09-16T12:38:18;22.40;49.20
40868;DHT22;26586;50.708;22.412;2022-09-16T12:41:13;22.40;49.00
40868;DHT22;26586;50.708;22.412;2022-09-16T12:43:53;22.40;48.70
40868;DHT22;26586;50.708;22.412;2022-09-16T12:46:35;22.40;48.20
40868;DHT22;26586;50.708;22.412;2022-09-16T12:49:42;22.40;47.80
40868;DHT22;26586;50.708;22.412;2022-09-16T13:01:49;22.30;47.80
40868;DHT22;26586;50.708;22.412;2022-09-16T13:04:22;22.40;47.20
40868;DHT22;26586;50.708;22.412;2022-09-16T13:06:54;22.40;47.70
40868;DHT22;26586;50.708;22.412;2022-09-16T13:09:30;22.30;47.20
40868;DHT22;26586;50.708;22.412;2022-09-16T13:12:24;22.30;48.00
40868;DHT22;26586;50.708;22.412;2022-09-16T13:14:56;22.30;47.40
40868;DHT22;26586;50.708;22.412;2022-09-16T13:17:34;22.40;47.50
40868;DHT22;26586;50.708;22.412;2022-09-16T13:20:19;22.30;46.90
40868;DHT22;26586;50.708;22.412;2022-09-16T13:23:21;22.30;46.60
40868;DHT22;26586;50.708;22.412;2022-09-16T13:33:39;22.40;47.50
40868;DHT22;26586;50.708;22.412;2022-09-16T13:36:26;22.30;47.50
40868;DHT22;26586;50.708;22.412;2022-09-16T13:38:57;22.40;47.20
40868;DHT22;26586;50.708;22.412;2022-09-16T13:41:44;22.40;47.50
40868;DHT22;26586;50.708;22.412;2022-09-16T13:47:30;22.40;47.80
40868;DHT22;26586;50.708;22.412;2022-09-16T13:50:19;22.40;47.80
40868;DHT22;26586;50.708;22.412;2022-09-16T13:52:47;22.40;47.80
40868;DHT22;26586;50.708;22.412;2022-09-16T13:55:21;22.40;47.60
40868;DHT22;26586;50.708;22.412;2022-09-16T14:09:37;22.40;47.90
40868;DHT22;26586;50.708;22.412;2022-09-16T14:12:33;22.40;47.50
40868;DHT22;26586;50.708;22.412;2022-09-16T14:15:02;22.40;47.70
40868;DHT22;26586;50.708;22.412;2022-09-16T14:20:04;22.40;47.40
40868;DHT22;26586;50.708;22.412;2022-09-16T14:22:30;22.40;47.40
40868;DHT22;26586;50.708;22.412;2022-09-16T14:24:58;22.30;47.30
40868;DHT22;26586;50.708;22.412;2022-09-16T14:27:28;22.30;47.40
40868;DHT22;26586;50.708;22.412;2022-09-16T14:30:12;22.30;47.30
40868;DHT22;26586;50.708;22.412;2022-09-16T14:32:39;22.30;47.20
40868;DHT22;26586;50.708;22.412;2022-09-16T14:35:17;22.30;47.20
40868;DHT22;26586;50.708;22.412;2022-09-16T14:37:48;22.30;47.10
40868;DHT22;26586;50.708;22.412;2022-09-16T14:40:18;22.30;47.10
40868;DHT22;26586;50.708;22.412;2022-09-16T14:42:51;22.30;47.00
40868;DHT22;26586;50.708;22.412;2022-09-16T14:45:19;22.30;46.90
40868;DHT22;26586;50.708;22.412;2022-09-16T14:47:47;22.30;46.70
40868;DHT22;26586;50.708;22.412;2022-09-16T14:50:27;22.30;46.40
40868;DHT22;26586;50.708;22.412;2022-09-16T14:53:02;22.30;46.60
40868;DHT22;26586;50.708;22.412;2022-09-16T14:55:30;22.30;46.70
40868;DHT22;26586;50.708;22.412;2022-09-16T14:58:00;22.30;47.10
40868;DHT22;26586;50.708;22.412;2022-09-16T15:00:42;22.30;47.00
40868;DHT22;26586;50.708;22.412;2022-09-16T15:03:32;22.30;47.00
40868;DHT22;26586;50.708;22.412;2022-09-16T15:06:04;22.30;47.00
40868;DHT22;26586;50.708;22.412;2022-09-16T15:08:59;22.30;47.40
40868;DHT22;26586;50.708;22.412;2022-09-16T15:11:31;22.30;47.00
40868;DHT22;26586;50.708;22.412;2022-09-16T15:13:59;22.30;47.00
40868;DHT22;26586;50.708;22.412;2022-09-16T15:16:25;22.30;47.20
40868;DHT22;26586;50.708;22.412;2022-09-16T15:18:58;22.20;48.90
40868;DHT22;26586;50.708;22.412;2022-09-16T15:21:27;22.20;47.30
40868;DHT22;26586;50.708;22.412;2022-09-16T15:23:58;22.20;46.90
40868;DHT22;26586;50.708;22.412;2022-09-16T15:29:06;22.20;46.60
40868;DHT22;26586;50.708;22.412;2022-09-16T15:31:36;22.20;46.80
40868;DHT22;26586;50.708;22.412;2022-09-16T15:34:22;22.20;47.20
40868;DHT22;26586;50.708;22.412;2022-09-16T15:36:56;22.20;47.00
40868;DHT22;26586;50.708;22.412;2022-09-16T15:39:34;22.20;47.10
40868;DHT22;26586;50.708;22.412;2022-09-16T15:42:16;22.20;47.00
40868;DHT22;26586;50.708;22.412;2022-09-16T15:44:47;22.20;46.90
40868;DHT22;26586;50.708;22.412;2022-09-16T15:47:22;22.10;46.90
40868;DHT22;26586;50.708;22.412;2022-09-16T15:52:34;22.10;47.20
40868;DHT22;26586;50.708;22.412;2022-09-16T15:55:27;22.10;47.20
40868;DHT22;26586;50.708;22.412;2022-09-16T15:58:15;22.10;47.30
40868;DHT22;26586;50.708;22.412;2022-09-16T16:03:46;22.10;47.60
40868;DHT22;26586;50.708;22.412;2022-09-16T16:06:14;22.10;47.90
40868;DHT22;26586;50.708;22.412;2022-09-16T16:08:47;22.10;47.80
40868;DHT22;26586;50.708;22.412;2022-09-16T16:11:19;22.00;47.70
40868;DHT22;26586;50.708;22.412;2022-09-16T16:13:46;22.10;47.90
40868;DHT22;26586;50.708;22.412;2022-09-16T16:16:13;22.00;47.90
40868;DHT22;26586;50.708;22.412;2022-09-16T16:18:41;22.00;48.00
40868;DHT22;26586;50.708;22.412;2022-09-16T16:21:13;22.00;48.00
40868;DHT22;26586;50.708;22.412;2022-09-16T16:23:39;22.00;48.10
40868;DHT22;26586;50.708;22.412;2022-09-16T16:26:06;22.00;48.10
40868;DHT22;26586;50.708;22.412;2022-09-16T16:28:34;22.00;48.50
40868;DHT22;26586;50.708;22.412;2022-09-16T16:31:14;22.00;48.30
40868;DHT22;26586;50.708;22.412;2022-09-16T16:33:45;22.00;48.40
40868;DHT22;26586;50.708;22.412;2022-09-16T16:36:16;22.00;48.50
40868;DHT22;26586;50.708;22.412;2022-09-16T16:38:44;22.00;48.60
40868;DHT22;26586;50.708;22.412;2022-09-16T16:41:11;21.90;48.70
40868;DHT22;26586;50.708;22.412;2022-09-16T16:43:39;21.90;48.70
40868;DHT22;26586;50.708;22.412;2022-09-16T16:46:05;21.90;48.70
40868;DHT22;26586;50.708;22.412;2022-09-16T16:48:31;21.90;48.80
40868;DHT22;26586;50.708;22.412;2022-09-16T16:51:02;21.90;48.90
40868;DHT22;26586;50.708;22.412;2022-09-16T16:53:30;21.90;49.00
40868;DHT22;26586;50.708;22.412;2022-09-16T16:58:31;21.90;49.10
40868;DHT22;26586;50.708;22.412;2022-09-16T17:03:38;21.80;49.60
40868;DHT22;26586;50.708;22.412;2022-09-16T17:06:05;21.80;49.30
40868;DHT22;26586;50.708;22.412;2022-09-16T17:08:33;21.80;49.90
40868;DHT22;26586;50.708;22.412;2022-09-16T17:11:11;21.80;49.90
40868;DHT22;26586;50.708;22.412;2022-09-16T17:13:40;21.80;49.50
40868;DHT22;26586;50.708;22.412;2022-09-16T17:16:07;21.80;49.60
40868;DHT22;26586;50.708;22.412;2022-09-16T17:18:35;21.80;49.60
40868;DHT22;26586;50.708;22.412;2022-09-16T17:21:13;21.80;49.60
40868;DHT22;26586;50.708;22.412;2022-09-16T17:23:40;21.70;49.60
40868;DHT22;26586;50.708;22.412;2022-09-16T17:26:07;21.70;49.60
40868;DHT22;26586;50.708;22.412;2022-09-16T17:28:35;21.70;49.70
40868;DHT22;26586;50.708;22.412;2022-09-16T17:31:07;21.70;49.70
40868;DHT22;26586;50.708;22.412;2022-09-16T17:33:33;21.60;49.70
40868;DHT22;26586;50.708;22.412;2022-09-16T17:36:01;21.60;49.70
40868;DHT22;26586;50.708;22.412;2022-09-16T17:38:28;21.60;49.80
40868;DHT22;26586;50.708;22.412;2022-09-16T17:41:15;21.60;49.80
40868;DHT22;26586;50.708;22.412;2022-09-16T17:43:43;21.60;49.90
40868;DHT22;26586;50.708;22.412;2022-09-16T17:46:14;21.50;49.90
40868;DHT22;26586;50.708;22.412;2022-09-16T17:48:41;21.50;50.00
40868;DHT22;26586;50.708;22.412;2022-09-16T17:51:07;21.50;50.10
40868;DHT22;26586;50.708;22.412;2022-09-16T17:53:34;21.50;50.30
40868;DHT22;26586;50.708;22.412;2022-09-16T17:56:10;21.50;50.60
40868;DHT22;26586;50.708;22.412;2022-09-16T17:58:39;21.50;51.20
40868;DHT22;26586;50.708;22.412;2022-09-16T18:01:07;21.50;51.90
40868;DHT22;26586;50.708;22.412;2022-09-16T18:03:34;21.50;51.50
40868;DHT22;26586;50.708;22.412;2022-09-16T18:06:12;21.50;51.80
40868;DHT22;26586;50.708;22.412;2022-09-16T18:08:39;21.40;52.10
40868;DHT22;26586;50.708;22.412;2022-09-16T18:11:07;21.40;52.00
40868;DHT22;26586;50.708;22.412;2022-09-16T18:13:34;21.40;52.00
40868;DHT22;26586;50.708;22.412;2022-09-16T18:16:15;21.40;52.00
40868;DHT22;26586;50.708;22.412;2022-09-16T18:18:42;21.30;51.90
40868;DHT22;26586;50.708;22.412;2022-09-16T18:21:12;21.30;51.80
40868;DHT22;26586;50.708;22.412;2022-09-16T18:23:40;21.30;51.80
40868;DHT22;26586;50.708;22.412;2022-09-16T18:26:09;21.20;51.80
40868;DHT22;26586;50.708;22.412;2022-09-16T18:28:41;21.20;51.80
40868;DHT22;26586;50.708;22.412;2022-09-16T18:31:10;21.20;52.40
40868;DHT22;26586;50.708;22.412;2022-09-16T18:33:37;21.20;52.10
40868;DHT22;26586;50.708;22.412;2022-09-16T18:36:05;21.20;52.20
40868;DHT22;26586;50.708;22.412;2022-09-16T18:38:32;21.20;52.20
40868;DHT22;26586;50.708;22.412;2022-09-16T18:41:16;21.10;52.20
40868;DHT22;26586;50.708;22.412;2022-09-16T18:43:44;21.10;52.30
40868;DHT22;26586;50.708;22.412;2022-09-16T18:46:20;21.10;52.30
40868;DHT22;26586;50.708;22.412;2022-09-16T18:48:48;21.10;52.30